Terminal Aerodrome Forecast
Issued by NWS Wilmington, OH

Current Version | Previous Version | Text Only | Print | Product List | Glossary Off
Versions: 1 2 3 4 5 6 7 8 9 10 11 12 13 14 15

109
FTUS41 KILN 251731
TAFCMH
TAF
KCMH 251731Z 2518/2618 12007KT P6SM FEW035
     FM260000 12005KT P6SM FEW200
     FM261000 13003KT 5SM BR SCT200
     FM261400 16010KT P6SM FEW200=

USA.gov is the U.S. government's official web portal to all federal, state and local government web resources and services.